Time;durP1;ratioP1;P1;durP2;ratioP2;P2;SDS_P1;SDS_P2;PMS_P1;PMS_P2;Temp;Humidity;BMP_temperature;BMP_pressure;BME280_temperature;BME280_humidity;BME280_pressure;Samples;Min_cycle;Max_cycle;Signal;HPM_P1;HPM_P2
2021/07/30 00:00:29;;;;;;;9.00;4.67;;;13.00;99.90;;;;;;5063165;28;20917;-86
2021/07/30 00:02:55;;;;;;;9.43;4.72;;;13.00;99.90;;;;;;5062488;28;20386;-87
2021/07/30 00:05:20;;;;;;;10.43;4.40;;;13.00;99.90;;;;;;5080726;28;20373;-86
2021/07/30 00:07:46;;;;;;;7.33;4.40;;;13.00;99.90;;;;;;5054860;28;20957;-88
2021/07/30 00:10:12;;;;;;;8.52;4.43;;;13.00;99.90;;;;;;5054309;28;20477;-86
2021/07/30 00:12:38;;;;;;;6.78;4.45;;;13.00;99.90;;;;;;5053903;28;20366;-88
2021/07/30 00:15:06;;;;;;;10.02;4.53;;;12.90;99.90;;;;;;5054087;28;20714;-88
2021/07/30 00:17:32;;;;;;;6.65;4.65;;;12.90;99.90;;;;;;5072290;28;20876;-87
2021/07/30 00:19:59;;;;;;;6.90;4.45;;;12.90;99.90;;;;;;5054542;28;20378;-87
2021/07/30 00:22:25;;;;;;;8.70;4.40;;;12.90;99.90;;;;;;5054394;28;20937;-86
2021/07/30 00:24:51;;;;;;;5.78;4.22;;;12.90;99.90;;;;;;5072295;28;20381;-86
2021/07/30 00:27:16;;;;;;;6.53;4.50;;;12.90;99.90;;;;;;5054262;28;20913;-87
2021/07/30 00:29:42;;;;;;;7.10;4.43;;;12.80;99.90;;;;;;5072072;28;20386;-87
2021/07/30 00:32:07;;;;;;;5.32;4.65;;;12.80;99.90;;;;;;5072228;28;20427;-87
2021/07/30 00:34:33;;;;;;;8.20;4.30;;;12.80;99.90;;;;;;5054244;28;20398;-87
2021/07/30 00:36:58;;;;;;;5.55;4.22;;;12.80;99.90;;;;;;5054291;28;20493;-90
2021/07/30 00:39:24;;;;;;;8.23;4.50;;;12.80;99.90;;;;;;5054275;28;20382;-87
2021/07/30 00:41:50;;;;;;;9.50;4.50;;;12.80;99.90;;;;;;5054513;28;20888;-88
2021/07/30 00:44:15;;;;;;;7.93;4.67;;;12.70;99.90;;;;;;5054178;28;20723;-87
2021/07/30 00:46:41;;;;;;;9.57;4.83;;;12.70;99.90;;;;;;5054150;28;20374;-87
2021/07/30 00:49:07;;;;;;;5.72;4.70;;;12.70;99.90;;;;;;5071929;28;20451;-86
2021/07/30 00:51:32;;;;;;;8.68;4.82;;;12.70;99.90;;;;;;5052823;28;20538;-86
2021/07/30 00:53:59;;;;;;;10.57;4.50;;;12.60;99.90;;;;;;5053942;28;20386;-88
2021/07/30 00:56:25;;;;;;;8.30;4.63;;;12.60;99.90;;;;;;5071791;28;20405;-88
2021/07/30 00:58:51;;;;;;;5.97;4.50;;;12.60;99.90;;;;;;5071724;28;20454;-89
2021/07/30 01:01:18;;;;;;;8.60;4.63;;;12.60;99.90;;;;;;5053994;28;20795;-88
2021/07/30 01:03:43;;;;;;;7.28;4.45;;;12.50;99.90;;;;;;5054153;28;20383;-87
2021/07/30 01:06:10;;;;;;;9.60;5.22;;;12.50;99.90;;;;;;5053946;28;20378;-90
2021/07/30 01:08:37;;;;;;;8.80;4.90;;;12.40;99.90;;;;;;5053710;28;20461;-88
2021/07/30 01:11:03;;;;;;;7.60;4.60;;;12.40;99.90;;;;;;5053770;28;20740;-87
2021/07/30 01:13:29;;;;;;;10.40;4.70;;;12.40;99.90;;;;;;5053608;28;20379;-88
2021/07/30 01:15:54;;;;;;;4.90;4.40;;;12.40;99.90;;;;;;5053630;28;20757;-87
2021/07/30 01:18:20;;;;;;;8.87;4.93;;;12.40;99.90;;;;;;5053969;28;20899;-85
2021/07/30 01:20:56;;;;;;;7.97;5.22;;;12.30;99.90;;;;;;5053555;28;20382;-86
2021/07/30 01:23:22;;;;;;;6.83;4.90;;;12.30;99.90;;;;;;5053782;28;20461;-88
2021/07/30 01:25:48;;;;;;;5.37;4.70;;;12.30;99.90;;;;;;5053686;28;20468;-86
2021/07/30 01:28:13;;;;;;;6.35;4.80;;;12.30;99.90;;;;;;5071185;28;20383;-87
2021/07/30 01:30:39;;;;;;;8.03;5.30;;;12.30;99.90;;;;;;5053923;28;20405;-87
2021/07/30 01:33:04;;;;;;;5.57;5.07;;;12.20;99.90;;;;;;5071330;28;20412;-86
2021/07/30 01:35:30;;;;;;;6.55;5.20;;;12.20;99.90;;;;;;5071055;28;20429;-86
2021/07/30 01:37:55;;;;;;;7.17;4.90;;;12.30;99.90;;;;;;5053259;28;20382;-86
2021/07/30 01:40:21;;;;;;;8.82;5.00;;;12.20;99.90;;;;;;5053202;28;20732;-87
2021/07/30 01:42:47;;;;;;;7.33;5.00;;;12.20;99.90;;;;;;5052846;28;20390;-86
2021/07/30 01:45:12;;;;;;;6.30;5.00;;;12.20;99.90;;;;;;5053396;28;20390;-86
2021/07/30 01:47:38;;;;;;;6.72;4.95;;;12.20;99.90;;;;;;5071078;28;20374;-88
2021/07/30 01:50:04;;;;;;;7.40;4.80;;;12.10;99.90;;;;;;5053227;28;20386;-86
2021/07/30 01:52:30;;;;;;;7.73;4.57;;;12.10;99.90;;;;;;5053135;28;20389;-88
2021/07/30 01:54:55;;;;;;;6.13;4.60;;;12.10;99.90;;;;;;5071176;28;20394;-88
2021/07/30 01:57:21;;;;;;;8.98;5.18;;;12.10;99.90;;;;;;5052861;28;20394;-88
2021/07/30 01:59:46;;;;;;;7.90;4.90;;;12.10;99.90;;;;;;5053241;28;20378;-88
2021/07/30 02:02:12;;;;;;;5.40;4.90;;;12.00;99.90;;;;;;5070516;28;20463;-87
2021/07/30 02:04:38;;;;;;;6.60;4.60;;;12.00;99.90;;;;;;5070761;28;20736;-86
2021/07/30 02:07:03;;;;;;;6.87;4.93;;;12.00;99.90;;;;;;5052650;28;20375;-87
2021/07/30 02:09:30;;;;;;;6.80;4.95;;;12.00;99.90;;;;;;5052501;28;20386;-88
2021/07/30 02:11:56;;;;;;;5.22;4.68;;;12.00;99.90;;;;;;5052558;28;20474;-87
2021/07/30 02:14:25;;;;;;;5.93;5.03;;;11.90;99.90;;;;;;5052499;28;20473;-85
2021/07/30 02:17:00;;;;;;;6.10;5.20;;;11.90;99.90;;;;;;5070529;28;20393;-88
2021/07/30 02:19:26;;;;;;;6.15;5.13;;;11.90;99.90;;;;;;5070393;28;20382;-86
2021/07/30 02:21:54;;;;;;;8.60;5.07;;;11.90;99.90;;;;;;5052832;28;20390;-85
2021/07/30 02:24:20;;;;;;;6.23;4.90;;;11.80;99.90;;;;;;5052554;28;20386;-85
2021/07/30 02:26:46;;;;;;;7.85;5.38;;;11.80;99.90;;;;;;5052452;28;20370;-89
2021/07/30 02:29:12;;;;;;;6.85;4.90;;;11.80;99.90;;;;;;5052585;28;20744;-86
2021/07/30 02:31:38;;;;;;;8.35;5.35;;;11.70;99.90;;;;;;5052393;28;20430;-87
2021/07/30 02:34:04;;;;;;;7.38;5.20;;;11.70;99.90;;;;;;5052137;28;20386;-86
2021/07/30 02:36:29;;;;;;;7.68;5.20;;;11.70;99.90;;;;;;5052475;28;20955;-88
2021/07/30 02:38:55;;;;;;;7.45;5.10;;;11.60;99.90;;;;;;5052517;28;20394;-86
2021/07/30 02:41:21;;;;;;;8.60;5.30;;;11.60;99.90;;;;;;5070250;28;20863;-85
2021/07/30 02:43:47;;;;;;;7.90;5.13;;;11.60;99.90;;;;;;5070239;28;20377;-86
2021/07/30 02:46:16;;;;;;;5.70;5.05;;;11.70;99.90;;;;;;5052344;28;20382;-87
2021/07/30 02:48:45;;;;;;;8.07;5.13;;;11.70;99.90;;;;;;5052619;28;20389;-86
2021/07/30 02:51:12;;;;;;;9.27;6.00;;;11.70;99.90;;;;;;5052766;28;20463;-86
2021/07/30 02:53:39;;;;;;;8.52;5.35;;;11.70;99.90;;;;;;5052025;28;20434;-85
2021/07/30 02:56:05;;;;;;;7.63;5.40;;;11.70;99.90;;;;;;5052067;28;20382;-85
2021/07/30 02:58:31;;;;;;;8.02;5.40;;;11.70;99.90;;;;;;5052346;28;20465;-87
2021/07/30 03:00:57;;;;;;;8.77;5.63;;;11.70;99.90;;;;;;5052339;28;20923;-88
2021/07/30 03:03:23;;;;;;;9.75;5.63;;;11.70;99.90;;;;;;5052056;28;20539;-86
2021/07/30 03:05:49;;;;;;;10.40;5.53;;;11.80;99.90;;;;;;5052418;28;20386;-86
2021/07/30 03:08:14;;;;;;;7.33;5.40;;;11.70;99.90;;;;;;5052451;28;20372;-86
2021/07/30 03:10:40;;;;;;;9.13;5.70;;;11.70;99.90;;;;;;5052575;28;20731;-86
2021/07/30 03:13:05;;;;;;;8.63;5.27;;;11.70;99.90;;;;;;5070217;28;20390;-87
2021/07/30 03:15:31;;;;;;;8.80;5.50;;;11.70;99.90;;;;;;5055999;28;20405;-88
2021/07/30 03:17:56;;;;;;;7.97;5.67;;;11.60;99.90;;;;;;5055243;28;20374;-87
2021/07/30 03:20:22;;;;;;;9.70;5.67;;;11.60;99.90;;;;;;5055849;28;20887;-86
2021/07/30 03:22:47;;;;;;;9.30;5.88;;;11.70;99.90;;;;;;5073565;28;20370;-86
2021/07/30 03:25:13;;;;;;;8.87;5.87;;;11.70;99.90;;;;;;5061776;28;20831;-86
2021/07/30 03:27:40;;;;;;;7.95;5.55;;;11.60;99.90;;;;;;5068075;28;20382;-85
2021/07/30 03:30:06;;;;;;;8.00;5.40;;;11.60;99.90;;;;;;5068773;28;20374;-85
2021/07/30 03:32:32;;;;;;;8.38;6.03;;;11.70;99.90;;;;;;5056248;28;20850;-86
2021/07/30 03:34:58;;;;;;;13.83;6.87;;;11.70;99.90;;;;;;5055382;28;20426;-86
2021/07/30 03:37:23;;;;;;;16.75;6.70;;;11.70;99.90;;;;;;5055585;28;20428;-88
2021/07/30 03:39:49;;;;;;;9.73;6.27;;;11.70;99.90;;;;;;5073197;28;20375;-87
2021/07/30 03:42:15;;;;;;;7.65;5.50;;;11.70;99.90;;;;;;5055257;28;20406;-89
2021/07/30 03:44:41;;;;;;;7.75;5.40;;;11.70;99.90;;;;;;5073357;28;20907;-87
2021/07/30 03:47:06;;;;;;;8.37;6.07;;;11.70;99.90;;;;;;5073112;28;20438;-87
2021/07/30 03:49:32;;;;;;;9.70;5.50;;;11.70;99.90;;;;;;5055017;28;20386;-85
2021/07/30 03:51:57;;;;;;;6.85;5.28;;;11.80;99.90;;;;;;5054894;28;20362;-86
2021/07/30 03:54:23;;;;;;;8.33;5.40;;;11.80;99.90;;;;;;5072860;28;20788;-86
2021/07/30 03:56:48;;;;;;;7.82;5.47;;;11.90;99.90;;;;;;5055207;28;20433;-87
2021/07/30 03:59:14;;;;;;;8.77;5.63;;;12.00;99.90;;;;;;5055117;28;20378;-84
2021/07/30 04:01:47;;;;;;;14.65;5.65;;;12.00;99.90;;;;;;5054918;28;20410;-88
2021/07/30 04:04:16;;;;;;;16.15;5.70;;;12.10;99.90;;;;;;5054987;28;20386;-89
2021/07/30 04:06:44;;;;;;;7.22;5.50;;;12.10;99.90;;;;;;5054443;28;20382;-87
2021/07/30 04:09:11;;;;;;;10.90;5.47;;;12.20;99.90;;;;;;5054812;28;20393;-87
2021/07/30 04:11:37;;;;;;;9.02;5.25;;;12.20;99.90;;;;;;5054861;28;20388;-88
2021/07/30 04:14:03;;;;;;;25.27;6.05;;;12.20;99.90;;;;;;5054776;28;20465;-89
2021/07/30 04:16:30;;;;;;;14.05;5.63;;;12.30;99.90;;;;;;5054992;28;20858;-89
2021/07/30 04:18:55;;;;;;;8.75;5.20;;;12.40;99.90;;;;;;5054796;28;20919;-88
2021/07/30 04:21:21;;;;;;;6.37;5.23;;;12.40;99.90;;;;;;5072508;28;20823;-86
2021/07/30 04:23:46;;;;;;;12.23;5.20;;;12.40;99.90;;;;;;5054654;28;20934;-87
2021/07/30 04:26:12;;;;;;;6.10;5.15;;;12.50;99.90;;;;;;5054271;28;20402;-89
2021/07/30 04:28:37;;;;;;;7.57;5.10;;;12.50;99.90;;;;;;5054291;28;20389;-88
2021/07/30 04:31:04;;;;;;;8.15;5.13;;;12.50;99.90;;;;;;5072547;28;20383;-88
2021/07/30 04:33:31;;;;;;;6.32;4.75;;;12.60;99.90;;;;;;5054288;28;20823;-88
2021/07/30 04:35:56;;;;;;;7.03;4.80;;;12.60;99.90;;;;;;5054258;28;20488;-86
2021/07/30 04:38:22;;;;;;;11.18;5.78;;;12.70;99.90;;;;;;5054458;28;20421;-86
2021/07/30 04:40:47;;;;;;;7.60;5.33;;;12.80;99.90;;;;;;5072037;28;20377;-88
2021/07/30 04:43:13;;;;;;;13.75;5.82;;;12.80;99.90;;;;;;5071965;28;20385;-87
2021/07/30 04:45:39;;;;;;;18.93;5.97;;;12.90;99.90;;;;;;5054165;28;20374;-87
2021/07/30 04:48:04;;;;;;;13.55;5.43;;;13.10;99.90;;;;;;5054004;28;20497;-89
2021/07/30 04:50:31;;;;;;;7.57;4.68;;;13.30;99.90;;;;;;5071519;28;20366;-88
2021/07/30 04:52:57;;;;;;;9.02;5.05;;;13.70;99.90;;;;;;5053855;28;20867;-89
2021/07/30 04:55:22;;;;;;;7.85;5.05;;;13.90;99.90;;;;;;5053803;28;20410;-89
2021/07/30 04:57:48;;;;;;;11.53;4.50;;;14.10;99.90;;;;;;5054053;28;20386;-88
2021/07/30 05:00:14;;;;;;;8.37;4.53;;;14.20;99.90;;;;;;5053992;28;20755;-89
2021/07/30 05:02:40;;;;;;;11.52;4.80;;;14.30;99.90;;;;;;5053724;28;20726;-88
2021/07/30 05:05:06;;;;;;;6.25;4.03;;;14.50;99.90;;;;;;5071945;28;20859;-89
2021/07/30 05:07:32;;;;;;;7.93;3.92;;;14.80;99.90;;;;;;5053656;28;20473;-88
2021/07/30 05:09:57;;;;;;;11.18;4.10;;;15.20;99.90;;;;;;5053490;28;20472;-88
2021/07/30 05:12:23;;;;;;;7.03;4.00;;;15.50;99.90;;;;;;5053558;28;20374;-86
2021/07/30 05:14:48;;;;;;;8.35;4.25;;;15.60;99.90;;;;;;5071005;28;20636;-89
2021/07/30 05:17:14;;;;;;;38.40;7.03;;;15.80;99.90;;;;;;5053199;28;20413;-88
2021/07/30 05:19:40;;;;;;;36.03;6.78;;;15.90;99.90;;;;;;5070779;28;20382;-87
2021/07/30 05:22:05;;;;;;;14.13;4.83;;;16.00;99.90;;;;;;5053382;28;20386;-86
2021/07/30 05:24:35;;;;;;;7.82;4.20;;;16.10;99.90;;;;;;5053317;28;20374;-88
2021/07/30 05:27:01;;;;;;;9.93;4.18;;;16.10;99.90;;;;;;5053121;28;20374;-85
2021/07/30 05:29:26;;;;;;;9.03;4.30;;;16.20;99.90;;;;;;5053028;28;20422;-87
2021/07/30 05:31:52;;;;;;;7.10;4.40;;;16.20;99.90;;;;;;5053142;28;20410;-85
2021/07/30 05:34:17;;;;;;;11.33;4.50;;;16.30;99.90;;;;;;5052894;28;20386;-87
2021/07/30 05:36:43;;;;;;;7.65;3.85;;;16.50;99.90;;;;;;5052559;28;21022;-88
2021/07/30 05:39:08;;;;;;;7.53;3.73;;;16.50;99.90;;;;;;5053001;28;20787;-87
2021/07/30 05:41:34;;;;;;;8.07;3.85;;;16.70;99.90;;;;;;5052963;28;20372;-87
2021/07/30 05:43:59;;;;;;;7.57;4.30;;;16.80;99.90;;;;;;5053163;28;20448;-89
2021/07/30 05:46:25;;;;;;;8.73;4.03;;;16.80;99.90;;;;;;5052943;28;20736;-85
2021/07/30 05:48:53;;;;;;;7.80;3.90;;;16.90;99.90;;;;;;5053079;28;20501;-89
2021/07/30 05:51:18;;;;;;;8.95;4.25;;;17.00;99.90;;;;;;5070870;28;20841;-87
2021/07/30 05:53:44;;;;;;;7.00;3.97;;;17.10;99.90;;;;;;5070645;28;20408;-86
2021/07/30 05:56:09;;;;;;;6.40;3.55;;;17.30;99.90;;;;;;5052544;28;20398;-87
2021/07/30 05:58:35;;;;;;;13.07;4.30;;;17.40;99.90;;;;;;5070256;28;20408;-90
2021/07/30 06:01:01;;;;;;;10.23;3.78;;;17.50;99.90;;;;;;5070533;28;20375;-88
2021/07/30 06:03:26;;;;;;;10.43;4.00;;;17.60;99.90;;;;;;5070529;28;20922;-86
2021/07/30 06:05:52;;;;;;;13.00;3.70;;;17.70;99.90;;;;;;5052534;28;20377;-87
2021/07/30 06:08:17;;;;;;;9.57;3.63;;;17.70;99.90;;;;;;5053009;28;20373;-85
2021/07/30 06:10:43;;;;;;;7.50;3.50;;;17.90;99.90;;;;;;5053251;28;20949;-85
2021/07/30 06:13:11;;;;;;;7.80;3.37;;;17.90;99.90;;;;;;5053234;28;20425;-86
2021/07/30 06:15:37;;;;;;;10.80;4.25;;;18.00;99.90;;;;;;5052565;28;20466;-89
2021/07/30 06:18:03;;;;;;;9.83;4.10;;;18.10;99.90;;;;;;5052696;28;20884;-88
2021/07/30 06:20:30;;;;;;;7.78;3.70;;;18.10;99.90;;;;;;5053168;28;20378;-85
2021/07/30 06:22:56;;;;;;;8.90;3.85;;;18.10;99.90;;;;;;5070688;28;20400;-87
2021/07/30 06:25:21;;;;;;;6.07;3.53;;;18.30;99.90;;;;;;5070538;28;20496;-88
2021/07/30 06:27:47;;;;;;;8.57;4.13;;;18.30;99.90;;;;;;5052823;28;20883;-87
2021/07/30 06:30:13;;;;;;;9.30;3.80;;;18.40;99.90;;;;;;5052401;28;20782;-87
2021/07/30 06:32:39;;;;;;;7.32;4.00;;;18.50;99.90;;;;;;5070429;28;20389;-87
2021/07/30 06:35:05;;;;;;;7.15;3.55;;;18.60;99.90;;;;;;5052835;28;20398;-86
2021/07/30 06:37:36;;;;;;;10.95;3.80;;;18.80;99.90;;;;;;5053211;28;20475;-86
2021/07/30 06:40:03;;;;;;;10.37;3.37;;;19.10;99.90;;;;;;5073162;28;20377;-83
2021/07/30 06:42:30;;;;;;;5.20;2.88;;;19.50;99.90;;;;;;5062156;28;20382;-84
2021/07/30 06:44:56;;;;;;;7.72;3.33;;;20.00;99.90;;;;;;5079811;28;20386;-85
2021/07/30 06:47:23;;;;;;;11.03;3.27;;;20.30;99.90;;;;;;5060698;28;20389;-88
2021/07/30 06:49:49;;;;;;;9.88;3.30;;;20.70;99.90;;;;;;5054958;28;20725;-88
2021/07/30 06:52:15;;;;;;;8.05;3.50;;;21.20;99.90;;;;;;5059685;28;20905;-87
2021/07/30 06:54:41;;;;;;;13.15;3.80;;;21.50;99.90;;;;;;5065914;28;20399;-87
2021/07/30 06:57:08;;;;;;;7.97;3.50;;;21.70;99.90;;;;;;5093825;28;20411;-87
2021/07/30 06:59:34;;;;;;;7.85;3.22;;;22.00;99.90;;;;;;5077322;28;20852;-88
2021/07/30 07:02:04;;;;;;;7.00;3.30;;;22.40;99.90;;;;;;5074014;28;20417;-86
2021/07/30 07:04:33;;;;;;;9.40;3.50;;;22.60;99.90;;;;;;5059308;28;20899;-88
2021/07/30 07:06:59;;;;;;;7.20;3.13;;;22.90;99.90;;;;;;5082123;28;20392;-89
2021/07/30 07:09:26;;;;;;;9.30;3.30;;;22.90;99.90;;;;;;5055743;28;20396;-86
2021/07/30 07:11:52;;;;;;;8.00;3.55;;;22.90;99.90;;;;;;5056899;28;20871;-88
2021/07/30 07:14:18;;;;;;;9.45;3.50;;;22.90;99.90;;;;;;5056489;28;20884;-87
2021/07/30 07:16:43;;;;;;;9.70;3.47;;;23.00;99.90;;;;;;5074051;28;20461;-86
2021/07/30 07:19:10;;;;;;;6.00;3.20;;;23.00;99.90;;;;;;5055642;28;20370;-87
2021/07/30 07:21:39;;;;;;;12.00;3.95;;;23.10;99.90;;;;;;5073461;28;20457;-87
2021/07/30 07:24:06;;;;;;;10.05;3.50;;;23.20;99.90;;;;;;5074760;28;20379;-88
2021/07/30 07:26:32;;;;;;;11.85;3.60;;;23.20;99.90;;;;;;5071795;28;20392;-87
2021/07/30 07:28:58;;;;;;;10.87;3.33;;;23.20;99.90;;;;;;5074612;28;20435;-86
2021/07/30 07:31:23;;;;;;;10.85;3.30;;;23.20;99.90;;;;;;5075938;28;20373;-86
2021/07/30 07:33:49;;;;;;;7.47;3.43;;;23.20;99.90;;;;;;5075302;28;20391;-85
2021/07/30 07:36:14;;;;;;;11.98;3.65;;;23.30;99.90;;;;;;5075639;28;20475;-86
2021/07/30 07:38:42;;;;;;;7.47;3.53;;;23.30;99.90;;;;;;5075757;28;20927;-88
2021/07/30 07:41:08;;;;;;;9.50;3.70;;;23.30;99.90;;;;;;5075291;28;20408;-86
2021/07/30 07:43:36;;;;;;;8.35;3.25;;;23.30;99.90;;;;;;5075112;28;20408;-86
2021/07/30 07:46:01;;;;;;;7.63;3.50;;;23.30;99.90;;;;;;5075014;28;20417;-86
2021/07/30 07:48:27;;;;;;;9.40;3.97;;;23.50;99.90;;;;;;5075465;28;20376;-85
2021/07/30 07:50:52;;;;;;;8.30;3.63;;;23.50;99.90;;;;;;5075124;28;20422;-87
2021/07/30 07:53:19;;;;;;;10.00;3.83;;;23.70;99.90;;;;;;5075247;28;20388;-88
2021/07/30 07:55:44;;;;;;;10.33;3.90;;;23.60;99.90;;;;;;5074552;28;20423;-86
2021/07/30 07:58:10;;;;;;;9.45;3.63;;;23.70;99.90;;;;;;5092809;28;21181;-88
2021/07/30 08:00:36;;;;;;;9.50;3.70;;;23.70;99.60;;;;;;5093171;28;20711;-87
2021/07/30 08:03:03;;;;;;;8.55;3.75;;;23.80;99.50;;;;;;5074936;28;20430;-85
2021/07/30 08:05:29;;;;;;;7.20;3.60;;;23.90;99.80;;;;;;5067457;28;20381;-86
2021/07/30 08:07:57;;;;;;;6.77;3.60;;;24.20;99.90;;;;;;5066348;28;20440;-89
2021/07/30 08:10:23;;;;;;;8.07;3.58;;;24.50;98.70;;;;;;5054673;28;20413;-86
2021/07/30 08:12:48;;;;;;;10.20;3.93;;;24.50;97.80;;;;;;5056821;28;20738;-87
2021/07/30 08:15:14;;;;;;;11.00;3.83;;;24.60;97.20;;;;;;5061637;28;20469;-88
2021/07/30 08:17:40;;;;;;;8.65;3.80;;;24.50;97.60;;;;;;5058787;28;20392;-87
2021/07/30 08:20:16;;;;;;;8.50;3.90;;;24.30;97.40;;;;;;5053636;28;20394;-87
2021/07/30 08:22:43;;;;;;;8.98;3.78;;;24.10;98.80;;;;;;5068826;28;20394;-91
2021/07/30 08:25:12;;;;;;;8.75;4.00;;;24.30;98.30;;;;;;5082050;28;20377;-85
2021/07/30 08:27:38;;;;;;;12.45;4.22;;;24.30;98.40;;;;;;5084755;28;20387;-84
2021/07/30 08:30:05;;;;;;;12.85;4.00;;;23.80;96.60;;;;;;5083687;28;20374;-87
2021/07/30 08:32:34;;;;;;;11.60;4.45;;;23.40;97.20;;;;;;5063919;28;20770;-88
2021/07/30 08:35:01;;;;;;;15.73;4.97;;;23.20;96.90;;;;;;5085420;28;20410;-84
2021/07/30 08:37:40;;;;;;;14.88;4.70;;;22.90;97.00;;;;;;5088391;28;20374;-89
2021/07/30 08:40:07;;;;;;;13.20;4.55;;;22.80;98.10;;;;;;5087939;28;20490;-87
2021/07/30 08:42:37;;;;;;;10.63;4.57;;;22.90;97.80;;;;;;5110411;28;20367;-87
2021/07/30 08:45:04;;;;;;;11.13;4.20;;;23.00;98.60;;;;;;5108867;28;20470;-84
2021/07/30 08:47:30;;;;;;;7.47;3.70;;;23.00;97.10;;;;;;5084361;28;20375;-86
2021/07/30 08:49:56;;;;;;;13.18;4.35;;;23.00;97.20;;;;;;5090968;28;20911;-85
2021/07/30 08:52:35;;;;;;;9.87;4.13;;;23.30;96.50;;;;;;5089726;28;20418;-87
2021/07/30 08:55:05;;;;;;;12.13;3.78;;;23.30;96.00;;;;;;5091057;28;20390;-87
2021/07/30 08:57:42;;;;;;;8.90;4.07;;;23.50;96.00;;;;;;5081407;28;21325;-89
2021/07/30 09:00:10;;;;;;;9.47;3.87;;;23.70;95.00;;;;;;5105137;28;20413;-85
2021/07/30 09:02:36;;;;;;;10.05;3.88;;;23.70;95.80;;;;;;5083583;28;20873;-88
2021/07/30 09:05:27;;;;;;;7.97;3.90;;;23.80;95.40;;;;;;5086100;28;20558;-87
2021/07/30 09:07:56;;;;;;;10.55;4.45;;;24.20;96.30;;;;;;5086987;28;20407;-89
2021/07/30 09:10:36;;;;;;;11.60;4.37;;;24.60;94.70;;;;;;5085109;28;20378;-85
2021/07/30 09:13:23;;;;;;;7.53;3.90;;;24.90;94.00;;;;;;5085878;28;20401;-88
2021/07/30 09:16:00;;;;;;;7.47;3.30;;;25.10;94.60;;;;;;5088397;28;20946;-86
2021/07/30 09:18:34;;;;;;;13.60;4.40;;;25.20;92.80;;;;;;5107441;28;20894;-88
2021/07/30 09:21:16;;;;;;;9.95;4.00;;;25.10;94.30;;;;;;5087901;28;20785;-89
2021/07/30 09:24:03;;;;;;;8.90;3.60;;;25.20;92.00;;;;;;5085615;28;20522;-86
2021/07/30 09:26:33;;;;;;;10.73;3.60;;;25.30;92.80;;;;;;5103487;28;20371;-85
2021/07/30 09:29:01;;;;;;;8.48;3.60;;;25.30;92.30;;;;;;5105032;28;20375;-85
2021/07/30 09:31:35;;;;;;;10.85;3.67;;;25.00;92.60;;;;;;5085327;28;20375;-86
2021/07/30 09:34:10;;;;;;;8.90;3.90;;;25.10;93.30;;;;;;5087477;28;20518;-85
2021/07/30 09:37:04;;;;;;;12.07;3.88;;;25.10;92.50;;;;;;5087819;28;21047;-85
2021/07/30 09:39:33;;;;;;;10.52;3.33;;;25.30;91.80;;;;;;5077208;28;20423;-87
2021/07/30 09:42:01;;;;;;;15.02;4.30;;;25.50;92.20;;;;;;5085069;28;20479;-86
2021/07/30 09:44:28;;;;;;;5.85;3.40;;;25.50;91.40;;;;;;5084507;28;20402;-86
2021/07/30 09:47:08;;;;;;;9.40;3.72;;;;;;;;;;5085078;28;20373;-87
2021/07/30 09:49:46;;;;;;;7.93;3.45;;;26.20;99.90;;;;;;5101648;28;20497;-83
2021/07/30 09:52:14;;;;;;;7.82;3.40;;;26.10;99.90;;;;;;5090024;28;20392;-88
2021/07/30 09:54:47;;;;;;;9.70;3.92;;;25.90;99.90;;;;;;5093242;28;20416;-87
2021/07/30 09:57:15;;;;;;;6.13;3.50;;;26.00;99.90;;;;;;5111291;28;20828;-86
2021/07/30 09:59:42;;;;;;;10.32;3.60;;;26.00;91.00;;;;;;5092644;28;20411;-84
2021/07/30 10:02:20;;;;;;;8.27;3.70;;;26.20;91.30;;;;;;5092845;28;20374;-86
2021/07/30 10:04:50;;;;;;;7.25;3.17;;;26.20;91.20;;;;;;5110563;28;20462;-85
2021/07/30 10:07:21;;;;;;;7.83;3.33;;;25.90;90.80;;;;;;5092123;28;20370;-85
2021/07/30 10:09:52;;;;;;;8.90;3.45;;;26.00;92.90;;;;;;5110957;28;20379;-86
2021/07/30 10:12:19;;;;;;;12.27;3.30;;;26.20;91.50;;;;;;5092439;28;20493;-86
2021/07/30 10:14:45;;;;;;;12.50;3.70;;;26.30;91.10;;;;;;5091836;28;20884;-85
2021/07/30 10:17:15;;;;;;;15.65;3.63;;;26.60;90.80;;;;;;5092361;28;20366;-88
2021/07/30 10:19:41;;;;;;;7.90;3.23;;;26.60;89.00;;;;;;5110060;28;20373;-85
2021/07/30 10:22:08;;;;;;;9.87;3.50;;;26.10;89.10;;;;;;5092262;28;20435;-87
2021/07/30 10:24:42;;;;;;;11.77;3.60;;;25.60;88.90;;;;;;5096354;28;20367;-88
2021/07/30 10:27:10;;;;;;;9.50;3.60;;;25.20;90.40;;;;;;5096766;28;20418;-87
2021/07/30 10:30:02;;;;;;;10.07;3.22;;;24.90;91.10;;;;;;5081044;28;20430;-86
2021/07/30 10:32:47;;;;;;;7.13;3.25;;;25.20;92.90;;;;;;5067140;28;21356;-87
2021/07/30 10:35:26;;;;;;;8.50;3.17;;;25.40;91.80;;;;;;5085060;28;20636;-87
2021/07/30 10:38:13;;;;;;;7.05;3.10;;;25.60;91.80;;;;;;5066674;28;20910;-87
2021/07/30 10:40:40;;;;;;;6.45;3.10;;;25.90;90.80;;;;;;5061266;28;20385;-86
2021/07/30 10:43:10;;;;;;;8.93;3.05;;;26.00;91.20;;;;;;5059466;28;20376;-87
2021/07/30 10:45:43;;;;;;;12.67;3.37;;;26.30;91.80;;;;;;5082949;28;20394;-86
2021/07/30 10:48:23;;;;;;;8.57;3.77;;;26.70;89.50;;;;;;5064216;28;20959;-87
2021/07/30 10:51:25;;;;;;;15.77;7.13;;;27.00;89.60;;;;;;5063329;28;20385;-87
2021/07/30 10:53:54;;;;;;;14.53;4.43;;;27.10;90.10;;;;;;5080493;28;20385;-87
2021/07/30 10:56:20;;;;;;;10.07;3.43;;;27.10;88.40;;;;;;5083214;28;20405;-87
2021/07/30 10:58:45;;;;;;;11.38;3.70;;;26.80;87.50;;;;;;5081124;28;20880;-87
2021/07/30 11:01:21;;;;;;;14.02;5.00;;;26.30;87.40;;;;;;5064300;28;20373;-88
2021/07/30 11:03:53;;;;;;;7.00;3.50;;;25.80;90.50;;;;;;5066675;28;20386;-86
2021/07/30 11:06:50;;;;;;;9.07;3.20;;;25.60;89.20;;;;;;5082080;28;20417;-85
2021/07/30 11:09:16;;;;;;;6.97;3.07;;;25.50;90.10;;;;;;5070980;28;20386;-84
2021/07/30 11:11:57;;;;;;;6.15;3.05;;;25.40;90.20;;;;;;5073046;28;20370;-88
2021/07/30 11:14:32;;;;;;;7.13;3.25;;;25.40;90.10;;;;;;5055074;28;20400;-87
2021/07/30 11:17:08;;;;;;;10.50;3.10;;;25.40;91.00;;;;;;5054832;28;20458;-88
2021/07/30 11:19:35;;;;;;;7.60;3.15;;;25.30;90.20;;;;;;5055048;28;20401;-88
2021/07/30 11:22:06;;;;;;;8.73;3.22;;;25.20;90.40;;;;;;5055558;28;20385;-86
2021/07/30 11:24:40;;;;;;;7.70;3.07;;;25.10;90.10;;;;;;5055926;28;20381;-88
2021/07/30 11:27:07;;;;;;;8.68;3.55;;;25.00;90.60;;;;;;5073767;28;20442;-87
2021/07/30 11:29:32;;;;;;;7.07;2.80;;;25.20;90.90;;;;;;5054907;28;20392;-87
2021/07/30 11:32:04;;;;;;;8.50;3.27;;;25.50;91.30;;;;;;5055520;28;20477;-88
2021/07/30 11:34:35;;;;;;;5.90;3.17;;;25.80;91.90;;;;;;5054379;28;20917;-85
2021/07/30 11:37:08;;;;;;;9.00;3.17;;;26.10;90.50;;;;;;5073280;28;20784;-88
2021/07/30 11:39:39;;;;;;;6.88;2.90;;;26.30;89.20;;;;;;5072846;28;20375;-86
2021/07/30 11:42:12;;;;;;;6.72;3.17;;;26.40;89.00;;;;;;5071382;28;20370;-86
2021/07/30 11:44:45;;;;;;;7.90;3.00;;;26.30;88.50;;;;;;5075278;28;20389;-85
2021/07/30 11:47:11;;;;;;;5.57;2.60;;;26.30;88.90;;;;;;5082586;28;20384;-85
2021/07/30 11:49:39;;;;;;;6.50;3.00;;;26.40;90.50;;;;;;5063390;28;20725;-87
2021/07/30 11:52:06;;;;;;;8.52;3.15;;;26.50;86.50;;;;;;5063398;28;20795;-88
2021/07/30 11:54:33;;;;;;;6.55;3.28;;;26.30;88.20;;;;;;5082688;28;20392;-89
2021/07/30 11:56:59;;;;;;;10.45;3.10;;;26.30;87.20;;;;;;5082279;28;20378;-88
2021/07/30 11:59:25;;;;;;;7.18;3.13;;;26.40;88.60;;;;;;5064659;28;20380;-88
2021/07/30 12:02:04;;;;;;;8.05;2.85;;;26.40;89.30;;;;;;5062600;28;21254;-91
2021/07/30 12:04:34;;;;;;;7.65;2.92;;;26.70;88.80;;;;;;5062940;28;20389;-87
2021/07/30 12:07:05;;;;;;;8.05;3.08;;;27.00;89.80;;;;;;5066020;28;20468;-85
2021/07/30 12:09:32;;;;;;;5.93;2.90;;;;;;;;;;5064045;28;21036;-85
2021/07/30 12:11:59;;;;;;;6.25;2.92;;;;;;;;;;5078124;28;20876;-85
2021/07/30 12:14:27;;;;;;;8.50;2.90;;;;;;;;;;5064426;28;20409;-85
2021/07/30 12:16:53;;;;;;;9.57;3.08;;;;;;;;;;5060317;28;20380;-86
2021/07/30 12:19:36;;;;;;;10.35;3.08;;;;;;;;;;5080694;28;20398;-88
2021/07/30 12:22:03;;;;;;;6.97;2.70;;;;;;;;;;5065106;28;20384;-87
2021/07/30 12:24:30;;;;;;;9.43;3.30;;;;;;;;;;5062787;28;20384;-82
2021/07/30 12:26:56;;;;;;;8.70;3.17;;;;;;;;;;5064484;28;20867;-85
2021/07/30 12:29:49;;;;;;;6.38;2.88;;;;;;;;;;5057394;28;20721;-86
2021/07/30 12:32:18;;;;;;;7.75;3.03;;;;;;;;;;5050661;28;20439;-88
2021/07/30 12:34:57;;;;;;;7.97;2.78;;;;;;;;;;5054401;28;20469;-88
2021/07/30 12:37:23;;;;;;;6.65;2.90;;;;;;;;;;5053995;28;20956;-88
2021/07/30 12:39:50;;;;;;;6.03;2.83;;;;;;;;;;5054385;28;20370;-85
2021/07/30 12:42:18;;;;;;;5.28;2.90;;;;;;;;;;5078758;28;20382;-87
2021/07/30 12:44:58;;;;;;;6.40;2.47;;;;;;;;;;5112637;28;20492;-86
2021/07/30 12:47:24;;;;;;;8.18;2.75;;;;;;;;;;5112653;28;20386;-84
2021/07/30 12:49:52;;;;;;;7.50;3.10;;;;;;;;;;5093909;28;20379;-88
2021/07/30 12:52:18;;;;;;;6.53;3.25;;;;;;;;;;5094400;28;20378;-87
2021/07/30 12:54:44;;;;;;;6.82;2.90;;;;;;;;;;5112541;28;20455;-89